Time;durP1;ratioP1;P1;durP2;ratioP2;P2;SDS_P1;SDS_P2;PMS_P1;PMS_P2;Temp;Humidity;BMP_temperature;BMP_pressure;BME280_temperature;BME280_humidity;BME280_pressure;Samples;Min_cycle;Max_cycle;Signal;HPM_P1;HPM_P2
2021/12/10 00:00:34;;;;;;;29.75;12.75;;;;;;;3.33;85.70;99856.03;1027946;28;20073;-81
2021/12/10 00:01:08;;;;;;;33.17;13.95;;;;;;;3.33;86.12;99855.13;1027900;28;20074;-82
2021/12/10 00:01:58;;;;;;;25.13;11.60;;;;;;;3.29;86.23;99849.06;1032048;28;20046;-81
2021/12/10 00:02:34;;;;;;;27.50;10.90;;;;;;;3.25;85.86;99846.34;1023954;29;20190;-82
2021/12/10 00:03:10;;;;;;;23.45;11.40;;;;;;;3.25;86.22;99843.78;1027875;28;20098;-82
2021/12/10 00:03:48;;;;;;;24.00;12.43;;;;;;;3.27;86.07;99844.72;1027948;28;20046;-82
2021/12/10 00:04:23;;;;;;;25.92;12.38;;;;;;;3.24;86.07;99839.53;1027941;28;20047;-83
2021/12/10 00:04:57;;;;;;;26.02;11.20;;;;;;;3.23;86.25;99838.66;1024077;29;20434;-82
2021/12/10 00:05:35;;;;;;;24.63;11.50;;;;;;;3.22;85.95;99839.44;1027906;28;20467;-82
2021/12/10 00:06:17;;;;;;;28.88;12.40;;;;;;;3.17;86.43;99839.28;1019951;29;20084;-82
2021/12/10 00:06:52;;;;;;;26.80;12.45;;;;;;;3.17;86.36;99834.19;1023993;29;20182;-82
2021/12/10 00:07:25;;;;;;;25.75;12.25;;;;;;;3.14;86.11;99834.09;1027842;28;20051;-81
2021/12/10 00:07:57;;;;;;;24.60;10.88;;;;;;;3.12;86.14;99835.69;1027940;28;20050;-81
2021/12/10 00:08:30;;;;;;;19.58;12.82;;;;;;;3.13;86.32;99832.34;1023885;29;20043;-81
2021/12/10 00:09:12;;;;;;;28.90;12.90;;;;;;;3.14;86.67;99831.53;1019955;29;20431;-82
2021/12/10 00:09:47;;;;;;;30.10;12.90;;;;;;;3.13;86.51;99832.34;1019941;29;20476;-81
2021/12/10 00:10:21;;;;;;;25.85;12.10;;;;;;;3.14;86.28;99836.63;1020123;29;20066;-82
2021/12/10 00:10:54;;;;;;;26.58;13.43;;;;;;;3.11;86.12;99833.94;1019946;29;20052;-81
2021/12/10 00:11:48;;;;;;;31.00;12.07;;;;;;;3.10;86.67;99831.34;1032143;28;20050;-81
2021/12/10 00:12:23;;;;;;;31.42;13.45;;;;;;;3.06;86.28;99829.47;1032162;28;20074;-81
2021/12/10 00:12:55;;;;;;;23.55;13.00;;;;;;;3.05;86.82;99832.88;1024342;29;20051;-80
2021/12/10 00:13:26;;;;;;;26.83;12.63;;;;;;;3.04;86.74;99829.44;1028486;28;20051;-81
2021/12/10 00:13:58;;;;;;;33.22;12.85;;;;;;;3.07;86.59;99832.09;1020177;29;20083;-80
2021/12/10 00:14:31;;;;;;;28.45;12.95;;;;;;;3.04;86.36;99820.94;1020321;29;20129;-81
2021/12/10 00:15:05;;;;;;;29.90;12.68;;;;;;;3.05;86.52;99826.09;1023933;29;20058;-81
2021/12/10 00:15:37;;;;;;;28.33;12.93;;;;;;;3.03;86.64;99820.06;1020045;29;20044;-81
2021/12/10 00:16:09;;;;;;;25.73;12.30;;;;;;;3.04;86.63;99816.72;1027870;28;20047;-80
2021/12/10 00:16:41;;;;;;;26.70;11.80;;;;;;;3.03;86.59;99825.16;1023850;28;20103;-81
2021/12/10 00:17:13;;;;;;;28.10;11.60;;;;;;;3.02;85.69;99818.31;1027960;28;20058;-81
2021/12/10 00:17:47;;;;;;;23.67;12.27;;;;;;;2.97;85.90;99817.28;1019951;29;20122;-81
2021/12/10 00:18:19;;;;;;;24.50;11.90;;;;;;;2.98;86.31;99821.56;1027918;28;20047;-81
2021/12/10 00:18:55;;;;;;;26.77;11.23;;;;;;;2.96;85.99;99813.00;1024095;29;20398;-81
2021/12/10 00:19:34;;;;;;;33.65;12.63;;;;;;;2.92;86.41;99817.09;1023886;29;20082;-82
2021/12/10 00:20:06;;;;;;;31.73;12.27;;;;;;;2.93;86.69;99816.28;1020061;29;20051;-82
2021/12/10 00:20:38;;;;;;;26.75;12.82;;;;;;;2.91;86.33;99817.03;1019858;29;20052;-82
2021/12/10 00:21:10;;;;;;;27.25;12.77;;;;;;;2.91;86.24;99815.34;1020100;29;20174;-81
2021/12/10 00:21:42;;;;;;;28.67;12.48;;;;;;;2.92;86.48;99818.78;1019993;29;20134;-81
2021/12/10 00:22:17;;;;;;;26.40;12.27;;;;;;;2.91;86.54;99815.34;1023883;29;20231;-81
2021/12/10 00:22:55;;;;;;;25.27;13.50;;;;;;;2.90;86.77;99823.81;1019945;29;20510;-81
2021/12/10 00:23:29;;;;;;;33.35;13.65;;;;;;;2.82;86.64;99818.41;1023907;28;20051;-81
2021/12/10 00:24:02;;;;;;;27.42;13.70;;;;;;;2.83;86.64;99807.44;1016116;29;20044;-80
2021/12/10 00:24:34;;;;;;;31.15;12.93;;;;;;;2.82;87.08;99805.69;1027752;28;20459;-81
2021/12/10 00:25:12;;;;;;;28.02;13.60;;;;;;;2.83;86.29;99802.34;1024338;29;20043;-80
2021/12/10 00:25:49;;;;;;;25.90;12.82;;;;;;;2.80;86.76;99802.22;1032661;28;20042;-81
2021/12/10 00:26:21;;;;;;;24.00;11.55;;;;;;;2.78;86.59;99801.31;1020816;29;20479;-81
2021/12/10 00:26:54;;;;;;;23.85;11.75;;;;;;;2.80;86.63;99807.31;1024667;29;20047;-80
2021/12/10 00:27:29;;;;;;;24.90;13.57;;;;;;;2.78;86.85;99808.94;1024595;28;20039;-81
2021/12/10 00:28:13;;;;;;;32.88;13.27;;;;;;;2.78;86.33;99808.06;1020692;29;20054;-81
2021/12/10 00:28:45;;;;;;;29.33;12.15;;;;;;;2.74;86.92;99791.81;1024649;29;20043;-81
2021/12/10 00:29:18;;;;;;;30.30;12.40;;;;;;;2.79;86.74;99797.06;1020671;29;20086;-81
2021/12/10 00:29:50;;;;;;;24.20;12.13;;;;;;;2.76;87.22;99797.81;1020786;29;20047;-81
2021/12/10 00:30:31;;;;;;;25.48;11.93;;;;;;;2.73;86.33;99795.16;1020752;29;20396;-81
2021/12/10 00:32:04;;;;;;;26.23;11.98;;;;;;;2.66;87.08;99794.06;1021396;29;20373;-81
2021/12/10 00:32:44;;;;;;;30.90;11.60;;;;;;;2.71;87.07;99791.69;1028666;28;20051;-82
2021/12/10 00:33:21;;;;;;;;;;;;;;;2.63;86.59;99793.91;1017121;29;20055;-82
2021/12/10 00:33:56;;;;;;;23.92;11.20;;;;;;;2.66;87.21;99788.09;1020605;29;19985;-81
2021/12/10 00:34:29;;;;;;;27.15;10.82;;;;;;;2.64;86.86;99785.50;1016712;29;20048;-82
2021/12/10 00:35:03;;;;;;;28.70;11.27;;;;;;;2.61;86.80;99789.59;1020622;29;20055;-81
2021/12/10 00:35:35;;;;;;;33.75;11.40;;;;;;;2.62;87.29;99784.56;1028595;28;20057;-81
2021/12/10 00:36:07;;;;;;;21.95;11.27;;;;;;;2.64;86.87;99784.63;1016672;29;20127;-81
2021/12/10 00:36:39;;;;;;;26.67;11.50;;;;;;;2.65;86.62;99781.25;1020642;29;20062;-82
2021/12/10 00:37:13;;;;;;;21.15;11.68;;;;;;;2.63;86.41;99777.81;1016863;29;20044;-81
2021/12/10 00:37:44;;;;;;;23.23;11.30;;;;;;;2.61;86.83;99784.50;1020643;29;20052;-82
2021/12/10 00:38:16;;;;;;;23.58;12.15;;;;;;;2.60;86.82;99781.09;1024643;28;20134;-82
2021/12/10 00:38:48;;;;;;;30.90;12.20;;;;;;;2.58;86.83;99774.19;1020615;29;20043;-81
2021/12/10 00:39:23;;;;;;;25.73;12.48;;;;;;;2.54;87.03;99774.09;1016704;29;20055;-81
2021/12/10 00:39:56;;;;;;;28.70;13.32;;;;;;;2.53;86.87;99776.56;1024518;29;20051;-81
2021/12/10 00:40:28;;;;;;;24.33;11.70;;;;;;;2.53;86.98;99774.03;1028622;28;20053;-81
2021/12/10 00:41:00;;;;;;;27.50;11.88;;;;;;;2.51;87.05;99778.19;1024621;28;20048;-82
2021/12/10 00:41:31;;;;;;;27.30;12.20;;;;;;;2.58;87.08;99772.53;1024671;28;20183;-81
2021/12/10 00:42:06;;;;;;;25.80;11.65;;;;;;;2.53;87.19;99772.34;1024738;29;20062;-81
2021/12/10 00:42:38;;;;;;;29.48;12.35;;;;;;;2.50;86.76;99772.22;1028551;28;20054;-82
2021/12/10 00:43:10;;;;;;;25.65;12.00;;;;;;;2.51;87.38;99773.94;1024580;28;20047;-81
2021/12/10 00:43:42;;;;;;;33.38;12.55;;;;;;;2.47;86.68;99769.56;1020625;29;20513;-82
2021/12/10 00:44:13;;;;;;;25.63;12.43;;;;;;;2.47;86.91;99766.13;1024575;29;20503;-81
2021/12/10 00:44:45;;;;;;;28.17;13.73;;;;;;;2.47;86.94;99771.22;1020743;29;20494;-81
2021/12/10 00:45:17;;;;;;;25.75;12.48;;;;;;;2.47;87.35;99772.09;1024543;29;20118;-81
2021/12/10 00:45:49;;;;;;;28.73;12.55;;;;;;;2.48;87.17;99770.41;1020631;29;20043;-81
2021/12/10 00:46:21;;;;;;;27.95;11.63;;;;;;;2.43;87.04;99770.22;1024556;29;20051;-82
2021/12/10 00:46:52;;;;;;;27.00;11.27;;;;;;;2.45;86.75;99765.22;1032816;28;20046;-81
2021/12/10 00:47:24;;;;;;;25.65;11.93;;;;;;;2.44;87.05;99771.13;1024539;28;20086;-81
2021/12/10 00:47:57;;;;;;;30.58;11.95;;;;;;;2.42;86.96;99768.50;1024590;28;20183;-81
2021/12/10 00:48:28;;;;;;;27.55;12.25;;;;;;;2.41;87.19;99766.78;1024554;29;20047;-81
2021/12/10 00:49:00;;;;;;;41.70;13.73;;;;;;;2.38;87.01;99772.59;1024605;29;20047;-80
2021/12/10 00:49:32;;;;;;;27.63;13.50;;;;;;;2.34;87.47;99772.41;1024541;29;20043;-81
2021/12/10 00:50:05;;;;;;;28.42;13.45;;;;;;;2.37;86.89;99767.44;1028552;28;20049;-81
2021/12/10 00:50:42;;;;;;;29.02;11.73;;;;;;;2.39;87.29;99768.38;1020667;29;20059;-81
2021/12/10 00:51:14;;;;;;;31.85;12.57;;;;;;;2.32;87.25;99761.31;1020698;29;20075;-81
2021/12/10 00:51:46;;;;;;;27.30;12.40;;;;;;;2.31;87.73;99762.97;1016694;29;20076;-81
2021/12/10 00:52:17;;;;;;;25.60;11.90;;;;;;;2.28;87.54;99764.53;1024665;29;20128;-81
2021/12/10 00:52:49;;;;;;;25.48;13.13;;;;;;;2.28;87.68;99764.53;1032581;28;20074;-81
2021/12/10 00:53:21;;;;;;;22.02;11.85;;;;;;;2.30;87.43;99763.81;1024726;29;20054;-81
2021/12/10 00:53:53;;;;;;;30.50;13.85;;;;;;;2.25;87.69;99754.25;1024549;29;20051;-81
2021/12/10 00:54:25;;;;;;;30.00;12.52;;;;;;;2.26;88.14;99756.84;1028620;28;20047;-81
2021/12/10 00:54:56;;;;;;;34.20;13.02;;;;;;;2.30;88.06;99757.84;1020546;29;20183;-81
2021/12/10 00:55:29;;;;;;;29.00;13.52;;;;;;;2.26;87.56;99754.31;1024531;29;20043;-81
2021/12/10 00:56:01;;;;;;;30.13;13.38;;;;;;;2.25;87.85;99760.19;1024579;29;20078;-81
2021/12/10 00:56:32;;;;;;;23.23;11.60;;;;;;;2.26;87.93;99756.84;1024493;29;20054;-81
2021/12/10 00:57:05;;;;;;;29.10;13.80;;;;;;;2.25;87.68;99754.25;1028548;28;20057;-81
2021/12/10 00:57:36;;;;;;;27.48;13.05;;;;;;;2.27;88.26;99752.66;1024635;29;20055;-81
2021/12/10 00:58:08;;;;;;;33.13;13.02;;;;;;;2.29;87.75;99746.81;1020732;29;20432;-81
2021/12/10 00:58:40;;;;;;;30.27;13.50;;;;;;;2.26;87.96;99756.00;1028490;28;20105;-80
2021/12/10 00:59:13;;;;;;;32.17;13.63;;;;;;;2.25;87.73;99754.25;1024603;29;20059;-81
2021/12/10 00:59:46;;;;;;;33.30;13.38;;;;;;;2.26;88.14;99749.22;1020573;29;20051;-81
2021/12/10 01:00:21;;;;;;;33.92;14.20;;;;;;;2.28;87.93;99746.72;1024545;28;20091;-81
2021/12/10 01:01:01;;;;;;;27.25;12.88;;;;;;;2.27;87.60;99752.66;1028608;28;20047;-81
2021/12/10 01:01:33;;;;;;;;;;;;;;;2.22;87.90;99747.38;1025103;28;20047;-81
2021/12/10 01:02:07;;;;;;;34.70;14.07;;;;;;;2.20;87.65;99747.28;1024520;28;19929;-80
2021/12/10 01:02:39;;;;;;;29.70;13.35;;;;;;;2.19;88.44;99750.66;1020524;29;20047;-81
2021/12/10 01:03:11;;;;;;;31.67;15.90;;;;;;;2.20;88.05;99747.28;1024606;29;20142;-80
2021/12/10 01:03:53;;;;;;;32.97;13.98;;;;;;;2.24;87.88;99747.44;1028602;28;20050;-81
2021/12/10 01:04:28;;;;;;;32.60;13.93;;;;;;;2.20;87.69;99742.19;1028547;28;20129;-80
2021/12/10 01:05:00;;;;;;;37.78;14.10;;;;;;;2.24;88.34;99747.44;1016534;29;20059;-81
2021/12/10 01:05:32;;;;;;;32.95;13.55;;;;;;;2.24;88.10;99743.19;1020597;29;20043;-81
2021/12/10 01:06:06;;;;;;;32.33;14.10;;;;;;;2.26;88.14;99738.19;1020600;29;20047;-81
2021/12/10 01:06:37;;;;;;;37.85;15.32;;;;;;;2.29;87.96;99743.38;1020507;29;20047;-81
2021/12/10 01:07:12;;;;;;;32.13;14.73;;;;;;;2.28;88.27;99739.09;1020480;29;20146;-81
2021/12/10 01:07:44;;;;;;;31.63;13.40;;;;;;;2.30;87.88;99732.41;1020568;29;20055;-80
2021/12/10 01:08:15;;;;;;;32.70;15.90;;;;;;;2.29;88.10;99733.22;1020526;29;20056;-81
2021/12/10 01:08:52;;;;;;;32.22;14.07;;;;;;;2.26;87.76;99730.56;1028525;28;20055;-81
2021/12/10 01:09:29;;;;;;;27.88;14.77;;;;;;;2.27;88.39;99727.22;1024436;29;20043;-81
2021/12/10 01:10:30;;;;;;;28.48;14.40;;;;;;;2.28;88.21;99723.84;1020576;29;20070;-81
2021/12/10 01:11:15;;;;;;;33.00;14.10;;;;;;;2.24;87.92;99715.25;1021157;28;20078;-81
2021/12/10 01:11:52;;;;;;;27.05;13.70;;;;;;;2.22;87.68;99717.72;1028533;28;20133;-81
2021/12/10 01:12:30;;;;;;;32.25;14.63;;;;;;;2.21;88.29;99718.53;1016581;29;20053;-81
2021/12/10 01:13:03;;;;;;;30.08;15.00;;;;;;;2.22;88.26;99715.19;1016711;29;20553;-81
2021/12/10 01:13:36;;;;;;;26.33;13.40;;;;;;;2.21;88.27;99713.44;1020537;29;20503;-82
2021/12/10 01:14:17;;;;;;;33.22;14.00;;;;;;;2.19;87.86;99704.03;1020528;29;20048;-81
2021/12/10 01:15:32;;;;;;;28.70;12.32;;;;;;;2.19;88.20;99710.00;1020652;29;20051;-81
2021/12/10 01:23:38;;;;;;;31.13;14.15;;;;;;;2.14;88.12;99708.06;1019075;29;20135;-82
2021/12/10 01:24:31;;;;;;;30.45;14.98;;;;;;;2.11;88.67;99705.41;1024322;29;20434;-81
2021/12/10 01:25:09;;;;;;;29.00;14.00;;;;;;;2.10;87.95;99714.69;1020148;29;20048;-81
2021/12/10 01:25:54;;;;;;;33.33;16.00;;;;;;;2.15;88.70;99708.13;1024597;29;20130;-80
2021/12/10 01:27:44;;;;;;;31.15;14.13;;;;;;;2.13;88.01;99707.19;1024390;29;20051;-80
2021/12/10 01:28:14;;;;;;;29.50;15.18;;;;;;;2.11;88.10;99708.81;1020373;29;20054;-81
2021/12/10 01:28:51;;;;;;;27.83;14.35;;;;;;;2.09;88.38;99709.53;1016554;29;20084;-80
2021/12/10 01:29:38;;;;;;;29.63;13.35;;;;;;;2.12;88.29;99708.03;1024450;29;20051;-81
2021/12/10 01:30:11;;;;;;;29.20;13.77;;;;;;;2.11;88.06;99700.31;1024548;28;20130;-81
2021/12/10 01:30:43;;;;;;;30.45;14.88;;;;;;;2.11;88.17;99701.19;1020548;29;20551;-80
2021/12/10 01:31:15;;;;;;;29.80;15.13;;;;;;;2.14;88.36;99711.47;1024458;29;20047;-81
2021/12/10 01:31:47;;;;;;;27.48;14.15;;;;;;;2.14;87.87;99701.31;1024372;29;20502;-80
2021/12/10 01:32:18;;;;;;;25.08;13.55;;;;;;;2.13;87.91;99704.66;1024440;29;20521;-80
2021/12/10 01:32:55;;;;;;;25.00;13.05;;;;;;;2.15;88.02;99708.13;1024407;29;20130;-81
2021/12/10 01:33:27;;;;;;;23.20;11.82;;;;;;;2.05;88.09;99706.00;1024471;29;20510;-81
2021/12/10 01:33:59;;;;;;;23.52;12.32;;;;;;;2.12;87.51;99709.69;1028364;28;20047;-81
2021/12/10 01:34:30;;;;;;;25.27;12.20;;;;;;;2.10;88.09;99714.69;1024444;28;20050;-81
2021/12/10 01:35:08;;;;;;;25.10;13.30;;;;;;;2.07;87.73;99706.94;1024387;28;20055;-80
2021/12/10 01:35:42;;;;;;;25.73;12.50;;;;;;;2.08;87.55;99706.13;1024325;28;20368;-81
2021/12/10 01:36:14;;;;;;;27.50;13.93;;;;;;;2.12;88.02;99710.56;1020392;29;20059;-80
2021/12/10 01:36:45;;;;;;;27.98;13.52;;;;;;;2.14;87.78;99708.06;1020444;29;20055;-80
2021/12/10 01:37:17;;;;;;;26.63;15.55;;;;;;;2.17;87.95;99703.97;1024358;29;20047;-81
2021/12/10 01:37:50;;;;;;;24.23;14.02;;;;;;;2.22;88.17;99709.25;1024421;28;20507;-81
2021/12/10 01:38:22;;;;;;;26.50;13.85;;;;;;;2.21;87.76;99713.44;1028519;28;20047;-80
2021/12/10 01:38:55;;;;;;;25.58;13.15;;;;;;;2.18;87.50;99713.34;1024694;28;20058;-80
2021/12/10 01:39:28;;;;;;;31.35;12.30;;;;;;;2.21;87.89;99703.28;1021237;29;20059;-81
2021/12/10 01:40:00;;;;;;;27.77;14.10;;;;;;;2.18;87.61;99704.84;1033307;28;20069;-81
2021/12/10 01:40:32;;;;;;;26.75;13.10;;;;;;;2.17;87.47;99701.44;1029687;28;20070;-81
2021/12/10 01:41:06;;;;;;;25.65;12.50;;;;;;;2.18;87.78;99708.25;1029405;28;20106;-81
2021/12/10 01:41:40;;;;;;;25.02;12.55;;;;;;;2.19;87.27;99698.94;1029104;28;20051;-81
2021/12/10 01:42:20;;;;;;;26.60;11.70;;;;;;;2.15;87.54;99705.59;1020599;29;20043;-81
2021/12/10 01:42:53;;;;;;;25.65;12.45;;;;;;;2.16;87.26;99698.84;1024589;29;20075;-81
2021/12/10 01:43:26;;;;;;;27.98;12.68;;;;;;;2.18;87.61;99700.63;1024437;29;20047;-80
2021/12/10 01:44:03;;;;;;;25.52;13.27;;;;;;;2.18;87.60;99700.63;1024339;29;20055;-81
2021/12/10 01:44:36;;;;;;;26.88;12.98;;;;;;;2.18;87.11;99699.75;1016837;29;20056;-80
2021/12/10 01:45:18;;;;;;;24.08;12.52;;;;;;;2.16;87.28;99699.69;1020415;29;20048;-80
2021/12/10 01:46:06;;;;;;;20.88;11.55;;;;;;;2.18;87.14;99697.22;1028328;28;20050;-80
2021/12/10 01:46:40;;;;;;;22.10;11.73;;;;;;;2.17;87.78;99700.56;1024480;29;20421;-81
2021/12/10 01:47:14;;;;;;;21.35;11.30;;;;;;;2.19;87.36;99699.84;1024431;29;20044;-81
2021/12/10 01:47:56;;;;;;;20.45;12.30;;;;;;;2.17;87.13;99691.28;1024328;28;20055;-80
2021/12/10 01:48:31;;;;;;;24.17;11.68;;;;;;;2.16;87.19;99699.69;1020594;29;20051;-81
2021/12/10 01:49:03;;;;;;;22.35;11.07;;;;;;;2.17;87.62;99700.56;1016489;29;20059;-81
2021/12/10 01:49:36;;;;;;;23.27;11.60;;;;;;;2.17;87.05;99696.34;1024316;29;20052;-80
2021/12/10 01:50:08;;;;;;;22.80;13.07;;;;;;;2.19;87.18;99694.75;1028340;28;20050;-80
2021/12/10 01:50:40;;;;;;;23.23;12.73;;;;;;;2.18;87.18;99692.13;1024406;29;20122;-81
2021/12/10 01:51:13;;;;;;;21.35;12.32;;;;;;;2.21;87.43;99693.13;1016570;29;20048;-81
2021/12/10 01:51:45;;;;;;;21.55;12.13;;;;;;;2.19;87.22;99689.66;1024292;29;20055;-81
2021/12/10 01:52:17;;;;;;;23.67;12.55;;;;;;;2.21;86.93;99693.13;1028414;28;20101;-81
2021/12/10 01:52:55;;;;;;;26.30;12.73;;;;;;;2.18;86.94;99687.03;1028305;28;20090;-81
2021/12/10 01:53:28;;;;;;;22.98;12.25;;;;;;;2.16;87.01;99684.44;1024476;28;20043;-80
2021/12/10 01:54:05;;;;;;;22.52;11.40;;;;;;;2.15;87.10;99686.94;1016421;29;20099;-80
2021/12/10 01:54:44;;;;;;;24.67;11.55;;;;;;;2.17;87.08;99690.38;1028387;28;20043;-81
2021/12/10 01:55:19;;;;;;;19.13;10.98;;;;;;;2.12;87.25;99687.69;1020560;29;20086;-80
2021/12/10 01:55:53;;;;;;;27.13;12.43;;;;;;;2.15;86.84;99681.84;1032354;28;20050;-80
2021/12/10 01:56:28;;;;;;;26.60;12.32;;;;;;;2.19;87.07;99687.13;1032313;28;20046;-80
2021/12/10 01:57:02;;;;;;;21.17;11.52;;;;;;;2.17;86.89;99676.03;1024289;28;20134;-81
2021/12/10 01:57:37;;;;;;;18.27;11.07;;;;;;;2.15;87.08;99677.63;1024271;29;20047;-80
2021/12/10 01:58:12;;;;;;;21.55;12.25;;;;;;;2.15;86.74;99677.63;1028468;28;20459;-80
2021/12/10 01:58:44;;;;;;;26.25;13.15;;;;;;;2.18;87.14;99677.78;1020371;29;20052;-80
2021/12/10 01:59:17;;;;;;;24.15;12.68;;;;;;;2.18;86.90;99672.69;1016460;29;20048;-80
2021/12/10 01:59:48;;;;;;;21.85;11.43;;;;;;;2.19;86.60;99679.50;1020306;29;20146;-80
2021/12/10 02:00:34;;;;;;;23.77;11.82;;;;;;;2.14;86.68;99675.03;1024309;29;20586;-81
2021/12/10 02:01:09;;;;;;;22.55;11.27;;;;;;;2.14;86.91;99675.03;1024272;29;20517;-81
2021/12/10 02:01:45;;;;;;;21.40;11.45;;;;;;;2.13;86.93;99668.22;1020340;29;20052;-81
2021/12/10 02:02:19;;;;;;;21.02;11.82;;;;;;;2.14;86.52;99670.81;1020516;29;20059;-81
2021/12/10 02:02:51;;;;;;;26.30;12.63;;;;;;;2.14;86.94;99668.28;1020392;29;20157;-80
2021/12/10 02:03:23;;;;;;;20.90;12.68;;;;;;;2.17;86.76;99676.03;1024301;28;20578;-81
2021/12/10 02:03:55;;;;;;;26.10;14.07;;;;;;;2.17;86.72;99672.59;1020451;29;20052;-81
2021/12/10 02:04:28;;;;;;;23.67;12.23;;;;;;;2.16;86.46;99674.28;1024479;29;20058;-80
2021/12/10 02:05:00;;;;;;;20.50;11.75;;;;;;;2.16;86.98;99675.97;1028241;28;20051;-81
2021/12/10 02:05:32;;;;;;;20.98;10.70;;;;;;;2.19;86.62;99678.63;1024219;28;20050;-80
2021/12/10 02:06:04;;;;;;;22.90;11.27;;;;;;;2.15;86.87;99672.53;1024460;29;20047;-81
2021/12/10 02:06:38;;;;;;;21.40;11.25;;;;;;;2.14;86.41;99670.81;1024319;29;20044;-81
2021/12/10 02:07:11;;;;;;;24.58;12.77;;;;;;;2.14;86.50;99675.88;1028430;28;20047;-80
2021/12/10 02:07:43;;;;;;;25.38;11.90;;;;;;;2.14;86.66;99675.88;1028529;28;20486;-81
2021/12/10 02:08:15;;;;;;;18.58;10.05;;;;;;;2.15;86.37;99671.69;1020317;29;20048;-81
2021/12/10 02:08:47;;;;;;;24.00;12.15;;;;;;;2.16;86.66;99674.28;1028373;28;20409;-80
2021/12/10 02:09:19;;;;;;;21.15;11.88;;;;;;;2.17;86.45;99676.03;1024237;29;20534;-80
2021/12/10 02:09:50;;;;;;;20.33;11.27;;;;;;;2.18;86.08;99669.25;1028482;28;20065;-81
2021/12/10 02:10:22;;;;;;;20.98;11.63;;;;;;;2.17;86.69;99670.94;1028215;28;20189;-81
2021/12/10 02:10:54;;;;;;;20.98;10.75;;;;;;;2.16;86.43;99669.22;1028232;28;20178;-81
2021/12/10 02:11:26;;;;;;;20.05;11.13;;;;;;;2.15;86.31;99671.69;1028327;28;20513;-80
2021/12/10 02:11:57;;;;;;;23.35;11.88;;;;;;;2.14;86.31;99665.72;1024291;29;20142;-81
2021/12/10 02:12:29;;;;;;;20.10;11.38;;;;;;;2.16;86.52;99661.59;1024395;28;20050;-81
2021/12/10 02:13:01;;;;;;;21.92;12.05;;;;;;;2.20;86.55;99663.44;1032235;28;20077;-80
2021/12/10 02:13:33;;;;;;;18.20;10.57;;;;;;;2.19;86.65;99663.38;1024244;29;20102;-81
2021/12/10 02:14:04;;;;;;;20.73;11.30;;;;;;;2.15;86.45;99667.47;1028216;28;20146;-81
2021/12/10 02:14:36;;;;;;;20.23;10.95;;;;;;;2.15;86.54;99662.38;1032445;28;20047;-81
2021/12/10 02:15:10;;;;;;;20.13;10.95;;;;;;;2.15;86.09;99662.38;1032287;28;20070;-81
2021/12/10 02:15:42;;;;;;;19.52;11.77;;;;;;;2.14;86.25;99660.66;1020227;29;20055;-81
2021/12/10 02:16:14;;;;;;;21.65;11.35;;;;;;;2.13;86.10;99663.13;1032283;28;20039;-81
2021/12/10 02:16:46;;;;;;;17.77;10.23;;;;;;;2.14;86.58;99663.19;1024167;29;20047;-81
2021/12/10 02:17:18;;;;;;;21.02;11.00;;;;;;;2.10;86.18;99658.81;1024388;29;20149;-81
2021/12/10 02:17:50;;;;;;;21.08;11.32;;;;;;;2.11;86.45;99658.00;1028171;28;20113;-81
2021/12/10 02:18:22;;;;;;;19.98;10.75;;;;;;;2.12;86.34;99661.41;1024354;29;20047;-81
2021/12/10 02:18:54;;;;;;;20.73;10.80;;;;;;;2.13;86.30;99658.91;1028214;28;20137;-80
2021/12/10 02:19:26;;;;;;;18.20;11.43;;;;;;;2.15;86.37;99653.91;1024227;28;20388;-81
2021/12/10 02:20:02;;;;;;;19.85;11.60;;;;;;;2.16;86.61;99653.97;1024172;28;20047;-81
2021/12/10 02:20:36;;;;;;;22.50;11.15;;;;;;;2.14;86.01;99650.47;1020319;28;20059;-80
2021/12/10 02:21:08;;;;;;;19.05;10.75;;;;;;;2.14;86.00;99654.72;1016361;29;20052;-81
2021/12/10 02:21:40;;;;;;;23.23;10.57;;;;;;;2.15;85.92;99648.81;1016286;29;20210;-82
2021/12/10 02:22:11;;;;;;;18.50;10.48;;;;;;;2.14;86.31;99645.41;1020384;29;20054;-80
2021/12/10 02:22:44;;;;;;;17.17;11.15;;;;;;;2.11;86.33;99642.75;1020258;29;20455;-80
2021/12/10 02:23:16;;;;;;;19.33;10.18;;;;;;;2.11;86.13;99646.94;1020245;29;20578;-81
2021/12/10 02:23:55;;;;;;;22.60;11.30;;;;;;;2.13;86.49;99647.88;1020226;29;20070;-81
2021/12/10 02:24:26;;;;;;;17.90;10.90;;;;;;;2.11;86.03;99645.31;1020446;29;20150;-80
2021/12/10 02:24:58;;;;;;;18.98;10.18;;;;;;;2.15;86.41;99648.81;1024067;29;20506;-81
2021/12/10 02:25:30;;;;;;;21.25;10.60;;;;;;;2.18;86.16;99647.28;1028222;28;20062;-81
2021/12/10 02:26:03;;;;;;;23.17;10.05;;;;;;;2.15;86.19;99642.06;1016333;29;20056;-81
2021/12/10 02:26:38;;;;;;;20.15;12.02;;;;;;;2.13;86.49;99643.66;1020155;29;20055;-81
2021/12/10 02:27:10;;;;;;;22.38;10.82;;;;;;;2.12;85.98;99636.00;1028096;28;20498;-81
2021/12/10 02:27:42;;;;;;;21.40;11.52;;;;;;;2.14;86.34;99639.47;1024242;29;20051;-81
2021/12/10 02:28:15;;;;;;;18.33;11.27;;;;;;;2.10;86.48;99628.31;1028200;28;20502;-80
2021/12/10 02:28:46;;;;;;;19.35;10.40;;;;;;;2.12;86.14;99639.41;1028220;28;20074;-80
2021/12/10 02:29:23;;;;;;;17.88;10.57;;;;;;;2.13;86.05;99633.50;1024170;29;20047;-81
2021/12/10 02:29:54;;;;;;;16.60;10.38;;;;;;;2.10;85.66;99633.41;1028165;28;20158;-81
2021/12/10 02:30:27;;;;;;;22.73;11.43;;;;;;;2.09;86.42;99630.78;1020191;29;20052;-80
2021/12/10 02:30:59;;;;;;;22.17;11.52;;;;;;;2.15;86.13;99631.03;1024174;29;20043;-80
2021/12/10 02:31:31;;;;;;;21.35;10.18;;;;;;;2.11;86.22;99630.06;1016369;29;20081;-81
2021/12/10 02:32:03;;;;;;;18.38;10.40;;;;;;;2.13;86.06;99620.78;1020240;28;20055;-81
2021/12/10 02:32:35;;;;;;;19.20;11.18;;;;;;;2.12;86.18;99624.16;1032311;28;20127;-81
2021/12/10 02:33:07;;;;;;;18.42;10.60;;;;;;;2.12;86.16;99626.72;1028225;28;20046;-81
2021/12/10 02:33:39;;;;;;;19.15;10.35;;;;;;;2.12;85.95;99621.63;1024253;29;20546;-81
2021/12/10 02:34:10;;;;;;;23.02;11.18;;;;;;;2.14;86.12;99625.06;1024136;29;20055;-81
2021/12/10 02:34:44;;;;;;;17.85;10.18;;;;;;;2.12;86.10;99614.00;1024162;29;20058;-81
2021/12/10 02:35:16;;;;;;;21.35;10.30;;;;;;;2.12;86.22;99616.53;1024127;28;20559;-81
2021/12/10 02:35:47;;;;;;;17.02;10.15;;;;;;;2.10;85.51;99623.22;1028237;28;20517;-81
2021/12/10 02:36:19;;;;;;;23.23;11.27;;;;;;;2.13;86.00;99620.78;1028137;28;20158;-81
2021/12/10 02:36:50;;;;;;;14.02;10.10;;;;;;;2.10;86.24;99613.06;1024202;29;20043;-81
2021/12/10 02:37:22;;;;;;;18.50;9.60;;;;;;;2.12;86.23;99621.63;1024379;29;20039;-81
2021/12/10 02:37:54;;;;;;;17.15;10.48;;;;;;;2.09;86.02;99618.94;1028160;28;20047;-81
2021/12/10 02:38:26;;;;;;;18.35;10.00;;;;;;;2.11;85.84;99617.34;1020253;29;20043;-82
2021/12/10 02:38:58;;;;;;;18.98;10.48;;;;;;;2.11;86.25;99614.81;1028179;28;20054;-81
2021/12/10 02:39:30;;;;;;;18.60;10.98;;;;;;;2.10;85.83;99610.53;1028160;28;20155;-81
2021/12/10 02:40:02;;;;;;;17.35;10.27;;;;;;;2.11;85.80;99612.28;1032246;28;20046;-81
2021/12/10 02:40:34;;;;;;;19.58;10.52;;;;;;;2.09;85.97;99611.34;1020321;29;20043;-81
2021/12/10 02:41:06;;;;;;;17.25;10.73;;;;;;;2.05;85.59;99614.53;1028121;28;20391;-82
2021/12/10 02:41:39;;;;;;;18.95;10.68;;;;;;;2.10;86.09;99608.00;1024206;29;20054;-81
2021/12/10 02:42:11;;;;;;;18.55;10.40;;;;;;;2.12;85.72;99610.56;1020272;29;20048;-81
2021/12/10 02:42:43;;;;;;;20.27;10.60;;;;;;;2.11;85.67;99608.84;1024321;29;20054;-81
2021/12/10 02:43:15;;;;;;;18.52;10.57;;;;;;;2.10;85.65;99602.91;1024141;29;20408;-81
2021/12/10 02:43:46;;;;;;;19.08;11.10;;;;;;;2.12;85.68;99603.84;1020257;29;20051;-82
2021/12/10 02:44:20;;;;;;;18.75;10.57;;;;;;;2.12;85.78;99603.84;1020315;29;20051;-81
2021/12/10 02:44:52;;;;;;;17.58;9.82;;;;;;;2.10;86.19;99602.03;1020244;29;20055;-81
2021/12/10 02:45:24;;;;;;;13.68;8.73;;;;;;;2.10;85.90;99607.09;1024100;29;20051;-82
2021/12/10 02:45:56;;;;;;;21.25;10.48;;;;;;;2.07;85.82;99597.69;1028103;28;20047;-81
2021/12/10 02:46:31;;;;;;;17.05;9.48;;;;;;;2.05;85.62;99600.19;1020260;29;20043;-81
2021/12/10 02:47:03;;;;;;;22.38;10.25;;;;;;;2.08;85.42;99601.97;1016144;29;20044;-81
2021/12/10 02:47:35;;;;;;;19.42;10.13;;;;;;;2.07;85.52;99600.22;1027693;28;20034;-82
2021/12/10 02:48:07;;;;;;;15.38;9.02;;;;;;;2.08;85.52;99599.44;1024034;28;20054;-81
2021/12/10 02:48:39;;;;;;;17.15;9.70;;;;;;;2.05;85.45;99592.56;1028090;28;20058;-81